Latest Weather Observations for Lismore Airport

IDN60801

Issued at 7:32 pm EDT Friday 20 October 2017 (issued every 30 minutes, with the page automatically refreshed every 10 minutes)

About weather observations | Map of weather stations | Latest weather observations for NSW | Other Formats
Station Details ID: 058214 Name: LISMORE AIRPORT AWS Lat: -28.83 Lon: 153.26 Height: 9.21 m
Data from the previous 72 hours. | See also: Recent months at Lismore Airport
Date/Time
EDT
Temp
°C
App
Temp
°C
Dew
Point
°C
Rel
Hum
%
Delta-T
°C
Wind Press
QNH
hPa
Press
MSL
hPa
Rain since
9am
mm
Dir  Spd
km/h
Gust
km/h
Spd
kts
Gust
kts
20/07:30pm 22.5 20.5 16.5 69 3.6 NNE 22 28 12 15 1015.6 1015.6 0.0
20/07:00pm 22.9 21.6 16.7 68 3.8 NE 19 28 10 15 1015.6 1015.6 0.0
20/06:30pm 23.5 21.6 16.8 66 4.1 NE 22 32 12 17 1015.3 1015.3 0.0
20/06:00pm 24.5 22.8 17.2 63 4.5 ENE 22 35 12 19 1015.2 1015.2 0.0
20/05:30pm 25.1 23.0 17.1 61 5.0 NE 24 32 13 17 1015.0 1015.0 0.0
20/05:00pm 26.1 25.1 18.0 61 5.1 ENE 20 30 11 16 1015.0 1015.0 0.0
20/04:30pm 26.4 25.1 17.2 57 5.7 NE 20 28 11 15 1015.0 1015.0 0.0
20/04:00pm 26.9 25.8 17.4 56 6.0 NE 19 26 10 14 1015.4 1015.4 0.0
20/03:30pm 27.2 25.7 16.2 51 6.8 NE 19 26 10 14 1015.9 1015.9 0.0
20/03:00pm 27.1 25.2 14.1 44 7.7 NNE 17 26 9 14 1016.4 1016.4 0.0
20/02:30pm 26.8 24.3 14.2 46 7.5 N 20 28 11 15 1017.2 1017.2 0.0
20/02:00pm 26.3 24.2 14.7 48 6.9 NNW 19 24 10 13 1017.9 1017.9 0.0
20/01:30pm 26.0 24.3 14.8 50 6.7 N 17 26 9 14 1018.4 1018.4 0.0
20/01:00pm 25.7 23.7 13.9 48 7.0 NNW 17 24 9 13 1018.9 1018.9 0.0
20/12:30pm 25.6 24.4 14.1 49 6.8 NW 13 20 7 11 1019.2 1019.2 0.0
20/12:00pm 25.4 23.6 14.5 51 6.5 NW 17 20 9 11 1019.7 1019.7 0.0
20/11:30am 24.2 23.8 15.1 56 5.4 NNW 11 19 6 10 1020.2 1020.2 0.0
20/11:00am 24.1 23.1 15.6 59 5.1 NNW 15 20 8 11 1020.7 1020.7 0.0
20/10:30am 23.5 23.2 15.5 60 4.8 NW 11 17 6 9 1021.0 1021.0 0.0
20/10:00am 23.2 23.2 17.2 69 3.7 NNW 13 19 7 10 1021.3 1021.3 0.0
20/09:30am 21.4 22.0 15.9 71 3.3 NNW 7 13 4 7 1021.6 1021.6 0.0
20/09:00am 18.6 18.7 15.5 82 1.8 NNW 9 13 5 7 1021.7 1021.7 0.2
20/08:32am 16.8 17.2 16.3 97 0.3 N 9 13 5 7 1021.7 1021.7 0.2
20/08:30am 17.0 17.5 16.5 97 0.3 N 9 13 5 7 1021.8 1021.8 0.2
20/08:16am 16.0 16.1 15.5 97 0.3 N 9 11 5 6 1021.7 1021.7 0.2
20/08:00am 15.6 15.2 15.1 97 0.3 N 11 13 6 7 1021.8 1021.8 0.2
20/07:30am 14.4 13.6 13.9 97 0.3 N 11 13 6 7 1021.9 1021.9 0.2
20/07:00am 13.6 12.5 13.1 97 0.3 N 11 13 6 7 1021.8 1021.8 0.2
20/06:30am 13.4 12.2 12.9 97 0.3 N 11 13 6 7 1021.7 1021.7 0.2
20/06:00am 13.1 11.8 12.6 97 0.3 N 11 15 6 8 1021.4 1021.4 0.2
20/05:30am 13.6 12.9 13.1 97 0.3 N 9 11 5 6 1021.2 1021.2 0.2
20/05:00am 13.8 13.1 13.2 96 0.3 N 9 11 5 6 1021.1 1021.1 0.2
20/04:41am 13.6 14.2 13.0 96 0.3 N 2 7 1 4 1021.2 1021.2 0.2
20/04:30am 13.6 13.2 13.0 96 0.3 N 7 9 4 5 1021.2 1021.2 0.2
20/04:00am 14.1 15.1 13.3 95 0.4 CALM 0 0 0 0 1021.5 1021.5 0.2
20/03:30am 14.5 15.3 13.7 95 0.4 N 2 6 1 3 1021.8 1021.8 0.2
20/03:05am 14.8 14.7 14.0 95 0.4 N 7 9 4 5 1022.0 1022.0 0.2
20/03:00am 14.8 14.7 14.0 95 0.4 N 7 9 4 5 1022.0 1022.0 0.2
20/02:46am 15.3 15.4 14.5 95 0.5 N 7 9 4 5 1022.1 1022.1 0.2
20/02:30am 14.9 14.5 14.1 95 0.5 N 9 9 5 5 1022.3 1022.3 0.2
20/02:00am 15.0 14.9 13.9 93 0.6 N 7 9 4 5 1022.6 1022.6 0.2
20/01:30am 15.6 15.0 14.5 93 0.6 N 11 13 6 7 1023.0 1023.0 0.2
20/01:00am 15.9 15.7 14.8 93 0.6 N 9 11 5 6 1023.3 1023.3 0.2
20/12:30am 15.9 15.3 14.6 92 0.7 N 11 11 6 6 1023.8 1023.8 0.2
20/12:00am 16.5 15.6 14.9 90 0.9 N 13 13 7 7 1024.0 1024.0 0.2
 
Date/Time
EDT
Temp
°C
App
Temp
°C
Dew
Point
°C
Rel
Hum
%
Delta-T
°C
Wind Press
QNH
hPa
Press
MSL
hPa
Rain since
9am
mm
Dir  Spd
km/h
Gust
km/h
Spd
kts
Gust
kts
19/11:30pm 17.0 16.9 15.0 88 1.2 N 9 11 5 6 1024.1 1024.1 0.2
19/11:00pm 16.8 16.4 15.2 90 0.9 N 11 13 6 7 1024.2 1024.2 0.2
19/10:30pm 17.3 17.4 14.4 83 1.7 NNE 7 9 4 5 1024.4 1024.4 0.2
19/10:00pm 17.7 17.5 14.6 82 1.8 NNE 9 11 5 6 1024.6 1024.6 0.2
19/09:30pm 17.9 17.5 15.2 84 1.6 N 11 13 6 7 1024.8 1024.8 0.2
19/09:00pm 18.3 17.9 14.2 77 2.3 N 9 13 5 7 1024.5 1024.5 0.2
19/08:30pm 19.5 18.9 14.7 74 2.8 NNE 11 13 6 7 1024.3 1024.3 0.2
19/08:00pm 19.7 18.7 14.5 72 3.0 NE 13 20 7 11 1024.2 1024.2 0.2
19/07:30pm 20.3 19.0 14.7 70 3.3 NE 15 22 8 12 1024.0 1024.0 0.2
19/07:00pm 21.2 18.8 14.4 65 4.0 ENE 20 26 11 14 1023.8 1023.8 0.2
19/06:30pm 22.0 19.9 13.6 59 4.9 NE 17 26 9 14 1023.4 1023.4 0.2
19/06:00pm 22.5 20.0 14.1 59 4.9 NE 20 28 11 15 1023.1 1023.1 0.2
19/05:30pm 23.1 20.8 14.1 57 5.3 ENE 19 28 10 15 1023.1 1023.1 0.2
19/05:00pm 23.5 21.1 13.9 55 5.6 E 19 28 10 15 1023.0 1023.0 0.2
19/04:30pm 23.2 20.7 14.2 57 5.3 ENE 20 33 11 18 1023.1 1023.1 0.2
19/04:00pm 24.1 22.1 15.6 59 5.1 NE 20 30 11 16 1023.2 1023.2 0.2
19/03:30pm 23.6 21.4 14.9 58 5.2 ENE 20 30 11 16 1023.6 1023.6 0.2
19/03:00pm 23.3 20.8 15.1 60 4.9 NE 22 32 12 17 1024.0 1024.0 0.2
19/02:30pm 23.8 21.7 15.3 59 5.1 NE 20 30 11 16 1024.3 1024.3 0.2
19/02:00pm 24.3 22.6 15.8 59 5.1 ENE 19 26 10 14 1024.6 1024.6 0.0
19/01:30pm 23.7 22.1 14.9 57 5.2 ENE 17 28 9 15 1025.0 1025.0 0.0
19/01:00pm 24.1 22.8 14.8 56 5.5 E 15 26 8 14 1025.2 1025.2 0.0
19/12:30pm 23.4 21.9 15.2 60 4.9 E 17 24 9 13 1025.6 1025.6 0.0
19/12:00pm 23.0 20.9 14.6 59 4.9 NE 19 30 10 16 1025.7 1025.7 0.0
19/11:30am 24.3 22.7 16.0 60 5.0 E 19 28 10 15 1025.9 1025.9 0.0
19/11:00am 23.3 21.8 14.3 57 5.3 NE 15 20 8 11 1026.2 1026.2 0.0
19/10:30am 23.3 24.5 16.8 67 4.0 S 6 11 3 6 1026.5 1026.5 0.0
19/10:00am 21.7 23.1 15.5 68 3.7 SSW 2 7 1 4 1026.7 1026.7 0.0
19/09:30am 20.9 23.0 16.3 75 2.8 CALM 0 0 0 0 1026.8 1026.8 0.0
19/09:00am 19.8 22.0 16.4 81 2.0 CALM 0 0 0 0 1027.0 1027.0 1.0
19/08:30am 19.0 21.3 16.8 87 1.3 CALM 0 0 0 0 1026.6 1026.6 1.0
19/08:00am 17.5 19.5 16.0 91 0.9 CALM 0 0 0 0 1026.7 1026.7 1.0
19/07:30am 16.9 18.9 15.9 94 0.6 CALM 0 0 0 0 1026.6 1026.6 1.0
19/07:00am 16.4 18.3 15.8 96 0.3 CALM 0 6 0 3 1026.4 1026.4 1.0
19/06:30am 16.2 18.0 15.6 96 0.3 CALM 0 0 0 0 1026.3 1026.3 1.0
19/06:00am 15.8 17.1 15.2 96 0.3 N 2 7 1 4 1025.9 1025.9 1.0
19/05:30am 15.7 17.4 15.1 96 0.3 CALM 0 6 0 3 1025.9 1025.9 1.0
19/05:00am 14.9 16.3 14.3 96 0.3 CALM 0 0 0 0 1025.6 1025.6 1.0
19/04:30am 14.9 16.3 14.3 96 0.3 CALM 0 0 0 0 1025.6 1025.6 1.0
19/04:17am 14.1 15.1 13.3 95 0.4 CALM 0 0 0 0 1025.7 1025.7 1.0
19/04:00am 15.1 16.5 14.5 96 0.3 CALM 0 0 0 0 1025.5 1025.5 1.0
19/03:53am 15.1 16.5 14.3 95 0.5 CALM 0 0 0 0 1025.5 1025.5 1.0
19/03:37am 15.2 16.6 14.4 95 0.5 CALM 0 0 0 0 1025.5 1025.5 1.0
19/03:30am 15.1 16.5 14.3 95 0.5 CALM 0 2 0 1 1025.6 1025.6 1.0
19/03:00am 15.2 16.6 14.4 95 0.5 CALM 0 0 0 0 1025.8 1025.8 1.0
19/02:30am 15.8 17.4 14.8 94 0.6 CALM 0 0 0 0 1026.0 1026.0 1.0
19/02:09am 16.2 17.9 15.1 93 0.6 CALM 0 0 0 0 1026.2 1026.2 1.0
19/02:00am 15.9 17.5 14.8 93 0.6 CALM 0 0 0 0 1026.3 1026.3 1.0
19/01:30am 16.3 18.0 15.2 93 0.6 CALM 0 0 0 0 1026.6 1026.6 1.0
19/01:00am 16.9 18.7 15.4 91 0.9 CALM 0 0 0 0 1027.0 1027.0 1.0
19/12:30am 17.4 19.3 15.7 90 1.0 CALM 0 0 0 0 1027.4 1027.4 1.0
19/12:00am 17.8 19.7 15.8 88 1.2 CALM 0 0 0 0 1027.6 1027.6 1.0
 
Date/Time
EDT
Temp
°C
App
Temp
°C
Dew
Point
°C
Rel
Hum
%
Delta-T
°C
Wind Press
QNH
hPa
Press
MSL
hPa
Rain since
9am
mm
Dir  Spd
km/h
Gust
km/h
Spd
kts
Gust
kts
18/11:30pm 18.4 18.9 15.5 83 1.7 N 7 9 4 5 1027.5 1027.5 1.0
18/11:00pm 19.7 20.1 14.7 73 2.9 NE 6 11 3 6 1027.5 1027.5 1.0
18/10:30pm 19.9 19.3 14.7 72 3.0 E 11 17 6 9 1027.5 1027.5 1.0
18/10:00pm 19.9 19.3 14.7 72 3.0 E 11 15 6 8 1027.5 1027.5 1.0
18/09:30pm 19.9 19.3 14.5 71 3.1 E 11 17 6 9 1027.3 1027.3 1.0
18/09:00pm 19.7 19.8 14.5 72 3.0 ESE 7 11 4 6 1027.0 1027.0 1.0
18/08:30pm 19.6 19.3 14.4 72 3.0 ESE 9 11 5 6 1026.9 1026.9 1.0
18/08:00pm 20.2 18.7 14.1 68 3.5 E 15 22 8 12 1026.3 1026.3 1.0
18/07:30pm 19.8 19.2 14.6 72 3.0 ESE 11 22 6 12 1026.1 1026.1 1.0
18/07:00pm 19.9 18.9 14.5 71 3.1 ESE 13 20 7 11 1025.9 1025.9 1.0
18/06:30pm 20.1 19.6 14.9 72 3.0 E 11 13 6 7 1025.8 1025.8 1.0
18/06:00pm 20.4 19.1 14.7 70 3.3 ENE 15 20 8 11 1025.5 1025.5 1.0
18/05:30pm 21.1 19.6 14.3 65 4.0 E 15 22 8 12 1025.1 1025.1 1.0
18/05:00pm 21.3 20.2 14.2 64 4.1 E 13 24 7 13 1025.1 1025.1 1.0
18/04:30pm 21.4 19.7 14.8 66 3.9 E 17 22 9 12 1024.9 1024.9 1.0
18/04:00pm 21.9 19.8 14.8 64 4.2 ESE 19 24 10 13 1024.9 1024.9 1.0
18/03:30pm 22.3 19.9 14.4 61 4.6 E 20 30 11 16 1025.3 1025.3 1.0
18/03:00pm 22.3 20.3 15.4 65 4.1 ESE 20 32 11 17 1025.6 1025.6 1.0
18/02:30pm 22.5 20.0 14.1 59 4.9 E 20 28 11 15 1025.7 1025.7 1.0
18/02:00pm 22.3 19.8 14.2 60 4.7 E 20 28 11 15 1025.9 1025.9 1.0
18/01:30pm 21.1 19.7 15.6 71 3.3 ESE 17 26 9 14 1026.2 1026.2 1.0
18/01:00pm 21.2 19.0 16.8 76 2.7 SE 24 32 13 17 1026.4 1026.4 1.0
18/12:30pm 19.9 18.4 16.7 82 1.9 ESE 20 35 11 19 1026.7 1026.7 1.0
18/12:00pm 22.3 20.5 16.1 68 3.7 ESE 20 33 11 18 1026.6 1026.6 1.0
18/11:30am 20.9 19.0 16.7 77 2.5 SE 22 32 12 17 1026.9 1026.9 1.0
18/11:00am 22.1 20.7 17.0 73 3.1 ESE 20 30 11 16 1026.8 1026.8 1.0
18/10:30am 21.7 20.7 17.5 77 2.6 ESE 19 28 10 15 1026.8 1026.8 1.0
18/10:00am 21.2 21.7 18.4 84 1.7 SE 13 17 7 9 1026.8 1026.8 1.0
18/09:30am 19.5 20.2 18.0 91 0.9 ESE 11 15 6 8 1026.7 1026.7 1.0
18/09:29am 19.4 20.0 17.7 90 1.0 ESE 11 17 6 9 1026.7 1026.7 1.0
18/09:13am 18.9 17.8 17.2 90 1.0 E 19 28 10 15 1026.5 1026.5 0.8
18/09:12am 18.8 18.0 17.1 90 1.0 ESE 17 28 9 15 1026.5 1026.5 0.8
18/09:03am 19.2 19.7 17.5 90 1.0 ESE 11 20 6 11 1026.4 1026.4 0.0
18/09:00am 19.2 20.1 17.5 90 1.0 ESE 9 13 5 7 1026.4 1026.4 2.8
18/08:56am 19.3 20.7 17.8 91 0.9 SE 7 11 4 6 1026.4 1026.4 2.2
18/08:48am 19.4 20.5 17.9 91 0.9 SE 9 13 5 7 1026.4 1026.4 2.2
18/08:34am 18.7 18.7 17.2 91 0.9 SSE 13 15 7 8 1026.3 1026.3 2.2
18/08:30am 18.7 18.6 17.0 90 1.0 SSE 13 19 7 10 1026.3 1026.3 2.0
18/08:00am 19.2 19.0 16.6 85 1.6 ESE 13 17 7 9 1026.1 1026.1 2.0
18/07:30am 19.2 19.3 16.6 85 1.6 ESE 11 24 6 13 1025.8 1025.8 2.0
18/07:00am 18.4 18.2 16.7 90 1.0 SSE 13 17 7 9 1025.5 1025.5 2.0
18/06:30am 18.4 18.5 16.4 88 1.2 ESE 11 15 6 8 1025.0 1025.0 2.0
18/06:00am 18.6 18.5 16.0 85 1.5 E 11 13 6 7 1024.6 1024.6 2.0
18/05:30am 17.9 18.8 16.6 92 0.8 SSE 7 11 4 6 1024.3 1024.3 2.0
18/05:00am 17.7 18.1 16.2 91 0.9 S 9 9 5 5 1023.9 1023.9 2.0
18/04:30am 18.0 18.8 16.3 90 1.0 ENE 7 11 4 6 1023.9 1023.9 2.0
18/04:00am 18.0 20.1 16.2 89 1.1 CALM 0 0 0 0 1024.1 1024.1 2.0
18/03:30am 17.5 17.7 15.8 90 1.0 SSE 9 13 5 7 1024.0 1024.0 2.0
18/03:00am 17.5 17.5 15.3 87 1.3 S 9 11 5 6 1024.1 1024.1 2.0
18/02:30am 18.5 18.9 15.2 81 1.9 E 7 11 4 6 1024.3 1024.3 1.8
18/02:00am 18.2 19.8 16.0 87 1.3 SE 2 11 1 6 1024.5 1024.5 1.8
18/01:30am 18.0 19.6 16.0 88 1.2 S 2 9 1 5 1024.9 1024.9 1.8
18/01:00am 18.3 20.3 16.1 87 1.3 CALM 0 0 0 0 1025.0 1025.0 1.8
18/12:30am 18.5 20.5 15.9 85 1.5 CALM 0 0 0 0 1025.5 1025.5 1.8
18/12:00am 18.6 20.6 16.0 85 1.5 CALM 0 0 0 0 1025.8 1025.8 1.8
 
Date/Time
EDT
Temp
°C
App
Temp
°C
Dew
Point
°C
Rel
Hum
%
Delta-T
°C
Wind Press
QNH
hPa
Press
MSL
hPa
Rain since
9am
mm
Dir  Spd
km/h
Gust
km/h
Spd
kts
Gust
kts
17/11:30pm 18.8 20.4 16.0 84 1.7 SE 2 7 1 4 1025.8 1025.8 1.8
17/11:00pm 18.9 19.6 16.1 84 1.7 E 7 11 4 6 1025.5 1025.5 1.8
17/10:30pm 18.2 19.0 16.4 89 1.1 SSE 7 9 4 5 1025.3 1025.3 1.8
17/10:00pm 18.8 20.4 16.0 84 1.7 SE 2 9 1 5 1025.5 1025.5 1.8
17/09:30pm 18.5 19.0 16.5 88 1.2 E 9 13 5 7 1025.4 1025.4 1.8
17/09:13pm 18.7 18.0 16.5 87 1.3 E 15 24 8 13 1025.4 1025.4 1.8
17/09:00pm 18.7 18.0 16.5 87 1.3 E 15 24 8 13 1025.3 1025.3 1.8
17/08:57pm 18.7 18.4 16.5 87 1.3 E 13 22 7 12 1025.2 1025.2 1.8
17/08:30pm 18.2 18.8 16.7 91 0.9 SE 9 13 5 7 1025.1 1025.1 1.6
17/08:00pm 18.1 18.7 16.8 92 0.8 S 9 11 5 6 1024.8 1024.8 1.6

Other Formats:

Comma delimited format used in spreadsheet applications
http://www.bom.gov.au/fwo/IDN60801/IDN60801.94572.axf

JavaScript Object Notation format (JSON) in row-major order
http://www.bom.gov.au/fwo/IDN60801/IDN60801.94572.json